Time;durP1;ratioP1;P1;durP2;ratioP2;P2;SDS_P1;SDS_P2;PMS_P1;PMS_P2;Temp;Humidity;BMP_temperature;BMP_pressure;BME280_temperature;BME280_humidity;BME280_pressure;Samples;Min_cycle;Max_cycle;Signal;HPM_P1;HPM_P2
2022/06/22 00:02:15;;;;;;;6.13;2.70;;;;;;;20.62;72.97;98347.06;5030254;28;20101;-80
2022/06/22 00:04:46;;;;;;;4.18;2.10;;;;;;;20.67;72.56;98355.38;5030747;28;20045;-80
2022/06/22 00:07:16;;;;;;;6.93;2.22;;;;;;;20.70;72.00;98346.59;5030885;28;20061;-79
2022/06/22 00:09:44;;;;;;;4.45;3.17;;;;;;;20.73;71.79;98354.31;5030440;28;20569;-79
2022/06/22 00:12:20;;;;;;;6.25;2.25;;;;;;;20.67;74.14;98352.63;5029988;28;20053;-80
2022/06/22 00:14:51;;;;;;;2.95;2.03;;;;;;;20.67;75.13;98352.63;5030331;28;20060;-79
2022/06/22 00:17:20;;;;;;;4.18;2.35;;;;;;;20.49;76.85;98340.94;5029157;28;20058;-80
2022/06/22 00:19:47;;;;;;;9.65;2.33;;;;;;;20.55;77.20;98335.44;5030210;28;20053;-80
2022/06/22 00:22:19;;;;;;;3.88;2.40;;;;;;;20.39;78.82;98329.84;5029906;28;20061;-79
2022/06/22 00:24:46;;;;;;;2.97;2.38;;;;;;;20.39;78.61;98326.28;5030101;28;20061;-80
2022/06/22 00:27:29;;;;;;;4.95;2.30;;;;;;;20.28;77.30;98315.19;5030124;28;20054;-80
2022/06/22 00:30:19;;;;;;;5.63;2.35;;;;;;;20.34;76.17;98319.63;5030164;28;20053;-79
2022/06/22 00:33:01;;;;;;;3.05;2.20;;;;;;;20.27;75.95;98320.97;5029767;28;20413;-79
2022/06/22 00:35:52;;;;;;;4.85;2.80;;;;;;;20.17;76.69;98307.94;5030154;28;20055;-80
2022/06/22 00:38:22;;;;;;;4.45;2.38;;;;;;;20.21;76.73;98311.84;5030161;28;20056;-80
2022/06/22 00:40:53;;;;;;;5.40;3.40;;;;;;;20.12;75.57;98297.72;5030131;28;20502;-79
2022/06/22 00:43:20;;;;;;;5.50;2.53;;;;;;;20.20;76.69;98310.16;5029849;28;20049;-79
2022/06/22 00:45:50;;;;;;;3.40;2.80;;;;;;;20.21;78.34;98316.53;5029770;28;20154;-79
2022/06/22 00:48:27;;;;;;;3.20;2.25;;;;;;;20.22;79.14;98316.25;5029956;28;20057;-79
2022/06/22 00:50:58;;;;;;;5.82;2.75;;;;;;;20.16;79.52;98325.63;5029874;28;20053;-79
2022/06/22 00:53:31;;;;;;;4.80;2.38;;;;;;;19.79;80.89;98296.97;5029738;28;20049;-79
2022/06/22 00:56:04;;;;;;;2.90;2.40;;;;;;;20.14;80.85;98331.41;5029765;28;20068;-79
2022/06/22 00:58:34;;;;;;;4.30;2.45;;;;;;;20.15;81.99;98337.75;5030046;28;20057;-79
2022/06/22 01:01:07;;;;;;;4.72;2.60;;;;;;;19.97;82.36;98330.75;5010116;28;20046;-79
2022/06/22 01:03:39;;;;;;;6.22;3.10;;;;;;;19.99;81.66;98336.81;5009820;28;20421;-79
2022/06/22 01:06:14;;;;;;;4.57;2.85;;;;;;;20.03;82.75;98337.94;5009800;28;20050;-79
2022/06/22 01:08:45;;;;;;;8.38;3.05;;;;;;;19.85;84.48;98328.19;5009951;28;20060;-79
2022/06/22 01:14:06;;;;;;;4.10;3.13;;;;;;;19.60;87.48;98321.38;5009054;28;20057;-79
2022/06/22 01:16:41;;;;;;;6.47;2.90;;;;;;;19.54;87.71;98340.88;5009523;28;20076;-80
2022/06/22 01:19:20;;;;;;;5.20;3.00;;;;;;;19.40;88.43;98346.03;5009817;28;20053;-80
2022/06/22 01:21:54;;;;;;;5.30;2.90;;;;;;;19.39;88.50;98352.63;5009553;28;20054;-79
2022/06/22 01:24:32;;;;;;;8.35;2.88;;;;;;;19.36;88.57;98347.63;5009769;28;20057;-79
2022/06/22 01:27:24;;;;;;;6.22;2.83;;;;;;;19.33;89.22;98359.19;5009719;28;20057;-79
2022/06/22 01:29:53;;;;;;;7.45;2.90;;;;;;;19.34;87.78;98350.66;5009389;28;20054;-79
2022/06/22 01:32:23;;;;;;;5.07;2.53;;;;;;;19.48;88.48;98359.34;5009121;28;20050;-79
2022/06/22 01:34:51;;;;;;;6.82;2.80;;;;;;;19.22;89.87;98367.34;5009599;28;20061;-79
2022/06/22 01:37:22;;;;;;;7.20;3.20;;;;;;;19.13;89.98;98343.28;5009507;28;20076;-79
2022/06/22 01:39:49;;;;;;;6.15;2.50;;;;;;;19.19;89.90;98334.81;5009606;28;20054;-80
2022/06/22 01:42:21;;;;;;;3.80;2.47;;;;;;;19.32;88.74;98343.75;5009036;28;20114;-79
2022/06/22 01:44:56;;;;;;;7.63;2.75;;;;;;;19.12;90.91;98330.59;5009505;28;20402;-80
2022/06/22 01:47:28;;;;;;;4.13;2.70;;;;;;;18.81;93.10;98327.53;5009395;28;20054;-80
2022/06/22 01:50:04;;;;;;;3.20;2.63;;;;;;;18.75;93.80;98319.19;5009503;28;20056;-79
2022/06/22 01:52:40;;;;;;;6.63;2.53;;;;;;;18.94;92.43;98321.66;5009040;28;20469;-79
2022/06/22 01:55:25;;;;;;;4.18;2.90;;;;;;;18.91;92.57;98316.66;5009294;28;20057;-79
2022/06/22 01:57:57;;;;;;;6.15;2.85;;;;;;;18.73;91.93;98282.84;5009286;28;20050;-80
2022/06/22 02:00:25;;;;;;;8.18;2.85;;;;;;;18.68;92.75;98292.97;5100623;28;20047;-79
2022/06/22 02:02:59;;;;;;;4.88;2.65;;;;;;;18.92;91.60;98313.63;5132665;27;20059;-79
2022/06/22 02:05:30;;;;;;;3.30;2.58;;;;;;;18.64;93.55;98313.84;5133097;27;20047;-80
2022/06/22 02:08:04;;;;;;;4.30;2.80;;;;;;;18.67;92.23;98319.69;5132777;27;20054;-80
2022/06/22 02:10:40;;;;;;;3.13;2.50;;;;;;;18.55;92.44;98341.84;5133079;27;20409;-79
2022/06/22 02:13:22;;;;;;;6.40;2.45;;;;;;;18.74;90.82;98358.00;5132454;27;20107;-79
2022/06/22 02:16:01;;;;;;;4.88;2.70;;;;;;;18.78;89.26;98355.59;5131313;27;20055;-79
2022/06/22 02:18:32;;;;;;;3.63;2.45;;;;;;;18.71;89.87;98359.38;5132992;27;20051;-79
2022/06/22 02:21:00;;;;;;;3.92;2.72;;;;;;;18.72;92.60;98361.00;5132884;27;20043;-79
2022/06/22 02:23:32;;;;;;;6.05;2.83;;;;;;;18.94;90.55;98393.25;5132277;27;20039;-79
2022/06/22 02:26:15;;;;;;;6.05;2.80;;;;;;;19.01;92.99;98391.09;5132722;27;20047;-80
2022/06/22 02:28:44;;;;;;;4.65;3.15;;;;;;;18.83;93.20;98377.66;5131627;27;20054;-79
2022/06/22 02:31:13;;;;;;;5.55;2.90;;;;;;;18.73;93.10;98390.22;5132693;27;20054;-79
2022/06/22 02:33:44;;;;;;;3.83;2.60;;;;;;;18.46;94.09;98390.16;5132399;27;20050;-79
2022/06/22 02:36:13;;;;;;;5.10;3.25;;;;;;;18.35;96.33;98393.84;5132667;27;20079;-79
2022/06/22 02:38:41;;;;;;;4.78;3.10;;;;;;;18.65;95.46;98396.19;5132543;27;20047;-79
2022/06/22 02:46:40;;;;;;;7.32;4.18;;;;;;;18.74;93.13;98377.28;5136143;27;20104;-79
2022/06/22 02:49:13;;;;;;;6.13;3.40;;;;;;;18.78;92.83;98369.34;5135954;27;20051;-80
2022/06/22 02:51:43;;;;;;;7.70;3.60;;;;;;;18.77;94.21;98346.47;5135090;27;20047;-79
2022/06/22 02:54:26;;;;;;;5.40;3.38;;;;;;;18.77;93.47;98329.94;5135608;27;20096;-79
2022/06/22 02:57:15;;;;;;;4.20;3.33;;;;;;;18.60;92.99;98318.22;5136351;27;20043;-80
2022/06/22 02:59:43;;;;;;;4.80;3.17;;;;;;;18.94;92.01;98332.66;5092751;27;20493;-80
2022/06/22 03:02:11;;;;;;;4.85;3.13;;;;;;;18.86;93.12;98328.44;5030032;28;20086;-79
2022/06/22 03:04:39;;;;;;;3.80;3.05;;;;;;;18.70;91.75;98290.81;5031667;28;20088;-79
2022/06/22 03:07:06;;;;;;;8.80;3.40;;;;;;;18.75;92.08;98291.66;5031294;28;20049;-79
2022/06/22 03:09:33;;;;;;;6.07;3.00;;;;;;;18.85;91.77;98279.97;5031214;28;20075;-79
2022/06/22 03:12:00;;;;;;;4.55;2.83;;;;;;;19.01;89.92;98282.84;5031326;28;20053;-79
2022/06/22 03:14:32;;;;;;;10.05;4.05;;;;;;;19.02;88.38;98290.03;5031131;28;20052;-79
2022/06/22 03:17:02;;;;;;;6.95;3.70;;;;;;;19.03;89.63;98288.94;5031111;28;20057;-80
2022/06/22 03:19:37;;;;;;;10.80;4.85;;;;;;;19.02;90.26;98285.34;5031250;28;20063;-80
2022/06/22 03:22:04;;;;;;;4.72;3.10;;;;;;;19.05;90.37;98284.00;5030842;28;20045;-79
2022/06/22 03:24:39;;;;;;;7.38;2.70;;;;;;;19.01;89.64;98278.16;5031262;28;20056;-79
2022/06/22 03:27:13;;;;;;;4.80;2.92;;;;;;;18.94;90.42;98299.63;5030991;28;20088;-80
2022/06/22 03:29:46;;;;;;;3.17;2.83;;;;;;;18.86;91.89;98311.94;5031206;28;20053;-79
2022/06/22 03:32:18;;;;;;;5.50;2.85;;;;;;;18.90;92.16;98318.56;5030833;28;20053;-79
2022/06/22 03:34:52;;;;;;;4.57;2.80;;;;;;;18.80;93.08;98329.44;5031135;28;20084;-79
2022/06/22 03:37:24;;;;;;;4.28;3.15;;;;;;;18.54;94.02;98312.63;5030872;28;20049;-80
2022/06/22 03:39:57;;;;;;;6.50;3.10;;;;;;;18.69;95.16;98349.69;5031049;28;20054;-80
2022/06/22 03:42:29;;;;;;;6.45;3.30;;;;;;;18.71;95.43;98356.63;5030654;28;20065;-80
2022/06/22 03:45:04;;;;;;;8.15;3.47;;;;;;;18.58;96.37;98354.25;5030776;28;20063;-79
2022/06/22 03:47:36;;;;;;;5.80;3.35;;;;;;;18.68;96.14;98381.91;5030735;28;20458;-79
2022/06/22 03:50:11;;;;;;;4.22;3.45;;;;;;;18.67;97.00;98383.00;5030817;28;20057;-79
2022/06/22 03:52:43;;;;;;;4.13;3.15;;;;;;;18.84;95.40;98371.06;5030350;28;20064;-80
2022/06/22 03:55:13;;;;;;;4.07;3.30;;;;;;;18.83;95.76;98372.97;5030686;28;20065;-80
2022/06/22 03:57:43;;;;;;;6.45;3.33;;;;;;;18.76;97.72;98380.63;5030958;28;20057;-80
2022/06/22 04:00:12;;;;;;;5.70;3.40;;;;;;;18.55;98.41;98376.78;5090445;27;20055;-79
2022/06/22 04:02:39;;;;;;;7.03;3.33;;;;;;;18.78;97.71;98370.16;5134550;27;20047;-80
2022/06/22 04:05:12;;;;;;;5.50;3.38;;;;;;;18.70;99.49;98360.44;5134518;27;20051;-79
2022/06/22 04:07:40;;;;;;;7.13;3.70;;;;;;;18.59;99.60;98369.66;5134611;27;20051;-79
2022/06/22 04:10:14;;;;;;;5.65;3.67;;;;;;;18.83;97.14;98383.97;5134379;27;20044;-79
2022/06/22 04:12:48;;;;;;;5.55;4.05;;;;;;;18.92;95.28;98376.13;5134213;27;20051;-78
2022/06/22 04:15:25;;;;;;;5.35;3.50;;;;;;;18.93;96.34;98372.28;5133878;27;20079;-78
2022/06/22 04:17:56;;;;;;;4.53;3.38;;;;;;;19.11;95.08;98373.88;5134466;27;20054;-79
2022/06/22 04:20:49;;;;;;;6.00;3.45;;;;;;;19.03;98.59;98374.31;5134648;27;20058;-78
2022/06/22 04:23:18;;;;;;;5.95;3.63;;;;;;;18.95;100.00;98341.75;5132881;27;20047;-79
2022/06/22 04:25:46;;;;;;;3.67;3.33;;;;;;;19.01;98.85;98358.03;5134251;27;20055;-79
2022/06/22 04:28:15;;;;;;;4.57;3.25;;;;;;;19.25;94.77;98372.38;5134261;27;20539;-79
2022/06/22 04:30:45;;;;;;;7.70;3.35;;;;;;;19.33;94.81;98378.47;5134462;27;20451;-79
2022/06/22 04:33:15;;;;;;;;;;;;;;;19.31;96.95;98378.72;5134221;27;20379;-79
2022/06/22 04:35:49;;;;;;;8.88;3.53;;;;;;;19.31;98.03;98373.22;5134003;27;19920;-78
2022/06/22 04:38:22;;;;;;;6.47;3.40;;;;;;;19.40;99.34;98370.81;5134103;27;20556;-78
2022/06/22 04:40:55;;;;;;;5.63;3.80;;;;;;;19.37;95.70;98363.91;5134012;27;20486;-78
2022/06/22 04:43:22;;;;;;;7.25;3.50;;;;;;;19.37;93.40;98379.63;5133644;27;20483;-79
2022/06/22 04:45:49;;;;;;;5.03;3.83;;;;;;;19.58;93.59;98392.47;5133691;27;20079;-78
2022/06/22 04:48:20;;;;;;;11.30;3.78;;;;;;;19.61;92.93;98371.81;5133678;27;20051;-78
2022/06/22 04:50:51;;;;;;;6.72;3.45;;;;;;;19.62;94.47;98377.06;5133677;27;20043;-78
2022/06/22 04:53:22;;;;;;;4.43;3.85;;;;;;;19.56;94.80;98377.31;5133300;27;20047;-78
2022/06/22 04:55:50;;;;;;;5.30;3.83;;;;;;;19.61;95.03;98372.66;5133733;27;20058;-78
2022/06/22 04:58:33;;;;;;;7.05;3.38;;;;;;;19.72;92.43;98384.63;5133434;27;20051;-78
2022/06/22 05:01:01;;;;;;;6.40;3.80;;;;;;;19.91;90.29;98386.97;5041463;27;20081;-79
2022/06/22 05:03:29;;;;;;;5.50;3.83;;;;;;;19.98;88.91;98382.91;5028810;28;20041;-78
2022/06/22 05:06:00;;;;;;;5.40;3.50;;;;;;;20.01;89.35;98383.44;5029466;28;20099;-78
2022/06/22 05:08:32;;;;;;;6.60;3.50;;;;;;;20.05;89.89;98395.63;5029814;28;20050;-78
2022/06/22 05:11:03;;;;;;;6.70;3.67;;;;;;;20.16;88.48;98386.31;5029477;28;20059;-78
2022/06/22 05:13:34;;;;;;;7.72;3.92;;;;;;;20.28;89.21;98375.91;5029354;28;20056;-79
2022/06/22 05:16:04;;;;;;;6.13;3.45;;;;;;;20.27;87.07;98382.50;5028893;28;20053;-78
2022/06/22 05:18:34;;;;;;;11.77;3.63;;;;;;;20.48;86.43;98388.97;5029387;28;20508;-78
2022/06/22 05:21:09;;;;;;;8.15;4.38;;;;;;;20.50;84.90;98374.91;5029440;28;20374;-78
2022/06/22 05:23:35;;;;;;;8.93;3.55;;;;;;;20.72;85.49;98368.41;5029376;28;20053;-78
2022/06/22 05:26:06;;;;;;;4.28;3.17;;;;;;;20.78;88.11;98378.38;5029251;28;20060;-78
2022/06/22 05:28:37;;;;;;;5.63;3.97;;;;;;;20.83;85.38;98370.09;5029294;28;20061;-78
2022/06/22 05:31:08;;;;;;;7.63;3.60;;;;;;;20.89;85.70;98365.41;5029323;28;20056;-78
2022/06/22 05:33:36;;;;;;;6.07;3.15;;;;;;;20.89;82.88;98374.53;5029297;28;20048;-78
2022/06/22 05:36:07;;;;;;;3.83;3.17;;;;;;;20.73;82.10;98378.31;5029156;28;20098;-78
2022/06/22 05:38:36;;;;;;;7.57;3.30;;;;;;;20.74;83.54;98389.09;5029512;28;20060;-79
2022/06/22 05:41:07;;;;;;;5.47;3.57;;;;;;;20.60;84.06;98363.06;5029181;28;20058;-79
2022/06/22 05:43:34;;;;;;;5.90;3.38;;;;;;;20.69;83.37;98389.09;5028999;28;20049;-78
2022/06/22 05:46:02;;;;;;;5.07;3.50;;;;;;;20.66;83.85;98392.41;5029136;28;20056;-78
2022/06/22 05:48:32;;;;;;;7.50;4.03;;;;;;;20.55;83.47;98385.97;5028972;28;20054;-79
2022/06/22 05:51:02;;;;;;;6.38;4.13;;;;;;;20.69;83.16;98397.38;5029080;28;20077;-79
2022/06/22 05:53:35;;;;;;;6.75;3.72;;;;;;;20.70;82.96;98390.78;5028772;28;20053;-79
2022/06/22 05:56:11;;;;;;;9.70;4.55;;;;;;;20.80;81.66;98415.63;5029071;28;20049;-79
2022/06/22 05:58:45;;;;;;;6.82;3.85;;;;;;;20.72;82.56;98405.13;5029136;28;20072;-79
2022/06/22 06:01:21;;;;;;;7.65;4.13;;;;;;;20.89;81.04;98410.44;5126261;27;20063;-79
2022/06/22 06:03:56;;;;;;;4.38;3.70;;;;;;;21.08;80.29;98402.50;5132603;28;20105;-79
2022/06/22 06:06:28;;;;;;;5.82;4.10;;;;;;;21.27;78.40;98393.66;5133035;27;20138;-79
2022/06/22 06:09:00;;;;;;;8.48;4.10;;;;;;;21.52;77.35;98399.25;5132724;27;20039;-78
2022/06/22 06:11:29;;;;;;;12.82;3.92;;;;;;;21.77;76.33;98397.63;5133139;27;20062;-78
2022/06/22 06:14:00;;;;;;;4.43;3.67;;;;;;;21.91;73.28;98400.66;5132283;27;20422;-78
2022/06/22 06:16:30;;;;;;;8.40;4.00;;;;;;;21.96;72.68;98397.88;5135111;27;20140;-79
2022/06/22 06:19:01;;;;;;;7.80;4.22;;;;;;;21.72;74.15;98392.94;5136618;27;20055;-78
2022/06/22 06:21:33;;;;;;;12.70;4.30;;;;;;;21.79;74.57;98417.53;5136827;27;20047;-78
2022/06/22 06:24:04;;;;;;;6.45;3.60;;;;;;;21.87;75.97;98418.91;5135058;27;20050;-78
2022/06/22 06:29:27;;;;;;;5.22;3.70;;;;;;;22.28;73.82;98425.25;5136657;27;20053;-78
2022/06/22 06:32:05;;;;;;;8.05;3.65;;;;;;;22.68;72.00;98430.97;5136398;27;20104;-78
2022/06/22 06:34:36;;;;;;;8.02;3.67;;;;;;;22.59;72.08;98438.19;5136407;27;20551;-78
2022/06/22 06:37:10;;;;;;;9.65;4.30;;;;;;;22.57;73.40;98427.41;5136411;27;20039;-78
2022/06/22 06:39:45;;;;;;;5.80;4.15;;;;;;;22.19;76.02;98453.75;5136068;27;20514;-78
2022/06/22 06:42:24;;;;;;;6.10;4.32;;;;;;;21.93;76.88;98456.53;5136015;27;20058;-78
2022/06/22 06:44:52;;;;;;;5.95;3.85;;;;;;;21.76;75.36;98473.41;5136255;27;20054;-78
2022/06/22 06:47:25;;;;;;;5.63;3.33;;;;;;;21.68;77.03;98483.09;5135856;27;20044;-78
2022/06/22 06:49:57;;;;;;;10.32;4.07;;;;;;;21.38;80.12;98484.66;5136139;27;20071;-78
2022/06/22 06:52:31;;;;;;;7.55;3.97;;;;;;;21.51;79.20;98508.22;5136178;27;20043;-78
2022/06/22 06:55:04;;;;;;;10.18;3.95;;;;;;;21.21;76.73;98495.94;5135754;27;20062;-78
2022/06/22 06:57:34;;;;;;;8.13;3.78;;;;;;;21.16;75.79;98501.44;5136082;27;20099;-78
2022/06/22 07:00:05;;;;;;;8.50;3.53;;;;;;;21.21;75.79;98509.75;5092563;27;20504;-78
2022/06/22 07:02:35;;;;;;;11.02;3.47;;;;;;;21.31;73.48;98521.94;5030988;28;20501;-78
2022/06/22 07:05:06;;;;;;;8.10;3.50;;;;;;;21.26;71.94;98497.88;5031512;28;20072;-78
2022/06/22 07:07:40;;;;;;;9.02;3.65;;;;;;;21.72;70.45;98499.94;5031529;28;20041;-78
2022/06/22 07:10:14;;;;;;;5.40;3.42;;;;;;;21.81;69.57;98506.59;5031486;28;20057;-78
2022/06/22 07:12:45;;;;;;;8.48;3.53;;;;;;;22.13;67.46;98502.78;5031136;28;20054;-79
2022/06/22 07:15:18;;;;;;;8.45;3.05;;;;;;;22.26;66.60;98510.50;5030596;28;20049;-78
2022/06/22 07:17:45;;;;;;;6.88;2.88;;;;;;;22.38;65.23;98509.41;5031561;28;20049;-78
2022/06/22 07:20:17;;;;;;;5.20;2.92;;;;;;;22.50;64.04;98507.19;5031149;28;20508;-78
2022/06/22 07:22:46;;;;;;;5.55;3.20;;;;;;;22.42;62.99;98497.50;5031037;28;20081;-78
2022/06/22 07:25:20;;;;;;;13.20;3.33;;;;;;;22.25;62.78;98505.22;5031123;28;20458;-79
2022/06/22 07:27:53;;;;;;;9.55;3.55;;;;;;;22.08;61.98;98494.44;5030604;28;20055;-78
2022/06/22 07:30:28;;;;;;;8.68;3.35;;;;;;;22.20;63.54;98503.28;5031104;28;20053;-78
2022/06/22 07:32:59;;;;;;;7.80;3.20;;;;;;;22.25;62.33;98499.69;5030698;28;20048;-78
2022/06/22 07:35:31;;;;;;;10.55;3.88;;;;;;;22.26;61.95;98499.41;5031159;28;20052;-78
2022/06/22 07:38:05;;;;;;;6.82;3.83;;;;;;;22.30;62.55;98498.88;5030966;28;20057;-78
2022/06/22 07:40:35;;;;;;;6.07;3.75;;;;;;;22.01;64.25;98486.44;5031375;28;20053;-78
2022/06/22 07:43:01;;;;;;;8.23;3.38;;;;;;;22.21;63.83;98488.34;5030519;28;20412;-78
2022/06/22 07:45:30;;;;;;;5.80;3.65;;;;;;;22.15;63.01;98495.00;5030923;28;20053;-78
2022/06/22 07:48:00;;;;;;;13.13;4.20;;;;;;;21.91;64.95;98478.94;5030693;28;20533;-78
2022/06/22 07:50:32;;;;;;;8.10;4.03;;;;;;;21.80;66.86;98482.81;5030884;28;20480;-78
2022/06/22 07:53:04;;;;;;;8.95;3.45;;;;;;;21.77;68.14;98474.22;5030346;28;20053;-78
2022/06/22 07:55:42;;;;;;;7.22;3.92;;;;;;;21.68;67.88;98463.72;5030923;28;20045;-78
2022/06/22 07:58:20;;;;;;;10.07;4.53;;;;;;;21.73;67.97;98452.66;5030627;28;20463;-78
2022/06/22 08:00:51;;;;;;;8.30;3.90;;;;;;;21.82;68.66;98458.47;5103562;27;20455;-78
2022/06/22 08:03:28;;;;;;;7.00;3.58;;;;;;;21.83;69.12;98454.59;5134695;27;20047;-78
2022/06/22 08:05:58;;;;;;;6.28;3.63;;;;;;;22.06;67.37;98449.63;5134875;27;20422;-78
2022/06/22 08:08:29;;;;;;;6.88;3.83;;;;;;;22.34;66.67;98445.47;5134463;27;20043;-78
2022/06/22 08:11:03;;;;;;;9.20;4.22;;;;;;;22.37;66.17;98435.75;5134346;27;20054;-78
2022/06/22 08:13:34;;;;;;;6.88;3.55;;;;;;;22.26;67.08;98421.91;5134319;27;20074;-78
2022/06/22 08:16:07;;;;;;;8.73;3.97;;;;;;;22.32;66.23;98435.78;5133719;27;20051;-78
2022/06/22 08:18:34;;;;;;;6.35;4.03;;;;;;;22.59;65.69;98435.44;5134628;27;20062;-78
2022/06/22 08:21:01;;;;;;;9.57;4.25;;;;;;;22.69;66.52;98437.31;5134293;27;20047;-78
2022/06/22 08:23:33;;;;;;;7.07;4.53;;;;;;;22.89;64.15;98437.25;5134006;27;20426;-78
2022/06/22 08:26:03;;;;;;;9.68;4.18;;;;;;;22.73;63.70;98439.28;5134227;27;20058;-78
2022/06/22 08:28:33;;;;;;;7.47;4.45;;;;;;;23.13;62.60;98447.72;5134277;27;20047;-78
2022/06/22 08:31:00;;;;;;;7.20;3.72;;;;;;;23.28;62.60;98444.84;5134116;27;20054;-78
2022/06/22 08:33:34;;;;;;;9.27;4.38;;;;;;;23.41;61.69;98443.41;5134267;27;20047;-78
2022/06/22 08:36:05;;;;;;;5.45;3.67;;;;;;;23.22;62.82;98434.09;5133956;27;20043;-78
2022/06/22 08:38:38;;;;;;;5.97;3.63;;;;;;;23.12;64.17;98444.13;5133346;27;20039;-78
2022/06/22 08:41:19;;;;;;;5.60;4.00;;;;;;;23.08;63.79;98422.75;5133992;27;20490;-78
2022/06/22 08:43:55;;;;;;;8.55;3.70;;;;;;;23.22;64.00;98445.19;5133692;27;20047;-78
2022/06/22 08:47:03;;;;;;;6.35;4.38;;;;;;;23.13;65.87;98439.41;5133886;27;20043;-78
2022/06/22 08:49:45;;;;;;;10.63;4.03;;;;;;;22.86;67.05;98437.00;5115985;27;20051;-78
2022/06/22 08:52:30;;;;;;;7.63;3.75;;;;;;;22.95;67.32;98440.84;5133738;27;20054;-78
2022/06/22 08:55:18;;;;;;;9.18;4.55;;;;;;;23.06;66.66;98442.44;5133715;27;20058;-78
2022/06/22 08:58:04;;;;;;;6.85;4.22;;;;;;;22.85;68.38;98444.47;5133874;27;20043;-78
2022/06/22 09:00:37;;;;;;;6.90;4.03;;;;;;;22.96;67.34;98456.38;5076543;27;20053;-78
2022/06/22 09:03:29;;;;;;;7.97;4.50;;;;;;;23.00;66.79;98462.16;5029237;28;20098;-78
2022/06/22 09:06:33;;;;;;;9.55;4.35;;;;;;;23.22;65.43;98456.28;5029690;28;20488;-78
2022/06/22 09:09:43;;;;;;;14.00;4.97;;;;;;;23.31;64.44;98462.88;5029521;28;20080;-78
2022/06/22 09:12:20;;;;;;;15.82;5.13;;;;;;;23.15;65.35;98457.41;5013845;28;20056;-78
2022/06/22 09:15:22;;;;;;;5.95;4.22;;;;;;;23.29;65.52;98468.72;5028973;28;20501;-78
2022/06/22 09:18:16;;;;;;;9.25;4.38;;;;;;;23.24;66.25;98467.91;5016847;28;20057;-77
2022/06/22 09:20:55;;;;;;;9.00;4.35;;;;;;;23.36;68.45;98471.16;5028454;28;20050;-79
2022/06/22 09:23:33;;;;;;;8.07;4.28;;;;;;;23.03;68.50;98469.91;5029292;28;20053;-78
2022/06/22 09:26:24;;;;;;;7.20;4.13;;;;;;;23.01;69.62;98480.47;5029264;28;20053;-78
2022/06/22 09:28:58;;;;;;;16.27;4.47;;;;;;;22.99;67.61;98480.75;5029308;28;20058;-78
2022/06/22 09:31:45;;;;;;;8.15;4.35;;;;;;;23.05;67.06;98487.06;5029601;28;20100;-78
2022/06/22 09:34:31;;;;;;;6.32;4.32;;;;;;;23.11;67.10;98489.59;5028997;28;20564;-78
2022/06/22 09:37:15;;;;;;;9.73;3.95;;;;;;;22.89;67.23;98481.59;5029249;28;20583;-79
2022/06/22 09:40:14;;;;;;;9.07;4.97;;;;;;;22.93;67.77;98498.50;5029428;28;20053;-78
2022/06/22 09:43:25;;;;;;;11.80;4.68;;;;;;;22.96;68.42;98490.44;5029048;28;20050;-78
2022/06/22 09:46:15;;;;;;;10.88;4.82;;;;;;;23.14;67.86;98491.78;4968164;28;20055;-78
2022/06/22 09:49:03;;;;;;;8.57;4.35;;;;;;;23.24;68.08;98496.44;5029160;28;20041;-78
2022/06/22 09:52:04;;;;;;;10.38;4.97;;;;;;;23.25;67.98;98505.63;5032725;28;20046;-78
2022/06/22 09:57:54;;;;;;;10.48;3.90;;;;;;;23.24;70.63;98499.22;5032814;28;20056;-78
2022/06/22 10:00:26;;;;;;;9.90;4.32;;;;;;;23.14;69.99;98494.56;5080004;27;20475;-78
2022/06/22 10:03:27;;;;;;;14.05;4.72;;;;;;;23.47;70.55;98505.19;5137072;27;20047;-78
2022/06/22 10:06:19;;;;;;;12.32;4.88;;;;;;;23.64;68.72;98505.66;5137310;27;20047;-78
2022/06/22 10:09:03;;;;;;;15.35;4.95;;;;;;;23.59;67.46;98513.19;5137055;27;20100;-79
2022/06/22 10:11:40;;;;;;;8.93;3.83;;;;;;;23.74;68.02;98499.25;5136973;27;20053;-79
2022/06/22 10:14:37;;;;;;;9.90;4.45;;;;;;;23.72;67.41;98520.88;5136052;27;20050;-78
2022/06/22 10:17:17;;;;;;;12.30;4.22;;;;;;;23.67;69.44;98518.97;5136673;27;20054;-78
2022/06/22 10:19:56;;;;;;;11.35;4.40;;;;;;;23.97;67.54;98513.53;5137048;27;20039;-79
2022/06/22 10:22:38;;;;;;;8.50;4.20;;;;;;;23.81;66.88;98515.56;5136392;27;20058;-79
2022/06/22 10:25:28;;;;;;;9.23;4.25;;;;;;;23.80;65.63;98506.41;5136654;27;20058;-79
2022/06/22 10:28:18;;;;;;;8.48;4.55;;;;;;;24.07;66.75;98523.72;5136659;27;20047;-79
2022/06/22 10:30:51;;;;;;;9.02;4.63;;;;;;;24.02;72.45;98519.88;5135283;27;20054;-79
2022/06/22 10:33:44;;;;;;;6.30;4.55;;;;;;;23.91;74.55;98523.00;5136788;27;20250;-79
2022/06/22 10:36:27;;;;;;;11.57;5.10;;;;;;;23.79;76.25;98517.78;5136229;27;20058;-79
2022/06/22 10:39:14;;;;;;;16.95;5.15;;;;;;;23.79;69.47;98518.63;5135255;27;20043;-79
2022/06/22 10:45:11;;;;;;;10.90;5.68;;;;;;;23.92;66.00;98508.84;5136433;27;20054;-78
2022/06/22 10:47:55;;;;;;;16.30;5.78;;;;;;;23.94;64.85;98514.13;5136151;27;20058;-78
2022/06/22 10:50:34;;;;;;;9.35;4.90;;;;;;;24.00;64.79;98511.00;5136495;27;20399;-79
2022/06/22 10:53:39;;;;;;;13.23;5.53;;;;;;;23.77;65.14;98512.53;5135853;27;20418;-79
2022/06/22 10:56:18;;;;;;;8.05;5.45;;;;;;;23.61;65.93;98514.56;5132897;27;20054;-79
2022/06/22 10:59:01;;;;;;;9.65;5.50;;;;;;;23.52;71.76;98512.69;5135971;27;20047;-79
2022/06/22 11:01:59;;;;;;;11.80;5.43;;;;;;;23.76;74.84;98529.47;5043332;27;20079;-79
2022/06/22 11:05:00;;;;;;;17.50;7.18;;;;;;;23.54;73.81;98532.66;5031495;28;20057;-79
2022/06/22 11:07:40;;;;;;;10.23;5.45;;;;;;;23.72;78.40;98542.25;5031521;28;20053;-79
2022/06/22 11:10:25;;;;;;;11.10;5.55;;;;;;;23.55;79.58;98549.00;5031326;28;20050;-79
2022/06/22 11:13:10;;;;;;;13.95;5.60;;;;;;;23.31;81.49;98551.63;5031152;28;20050;-79
2022/06/22 11:15:57;;;;;;;14.65;5.10;;;;;;;22.81;82.30;98562.56;5030881;28;20431;-79
2022/06/22 11:18:41;;;;;;;9.25;4.90;;;;;;;22.73;87.56;98569.50;5028757;28;20054;-79
2022/06/22 11:21:16;;;;;;;14.60;5.93;;;;;;;22.89;89.29;98569.47;5031286;28;20064;-79
2022/06/22 11:24:18;;;;;;;11.52;5.35;;;;;;;22.92;91.40;98569.72;5031162;28;20049;-80
2022/06/22 11:32:53;;;;;;;8.60;5.90;;;;;;;22.86;89.05;98579.16;5029798;28;20114;-80
2022/06/22 11:35:41;;;;;;;16.42;5.85;;;;;;;22.68;93.63;98590.81;5030279;28;20489;-80
2022/06/22 11:38:26;;;;;;;9.68;5.60;;;;;;;22.48;88.49;98569.50;5030256;28;20053;-80
2022/06/22 11:41:01;;;;;;;9.23;6.50;;;;;;;22.87;93.58;98579.97;5030343;28;20056;-80
2022/06/22 11:44:05;;;;;;;9.80;6.95;;;;;;;22.92;96.38;98586.34;5029511;28;20050;-80
2022/06/22 11:46:37;;;;;;;9.02;6.95;;;;;;;23.03;100.00;98595.47;5030026;28;20042;-80
2022/06/22 11:49:24;;;;;;;12.35;9.02;;;;;;;22.79;100.00;98578.59;5029950;28;20071;-80
2022/06/22 11:52:23;;;;;;;14.40;9.50;;;;;;;22.98;100.00;98587.16;5029238;28;20048;-80
2022/06/22 11:55:00;;;;;;;;;;;;;;;22.93;100.00;98587.19;5007252;28;20053;-80
2022/06/22 11:57:41;;;;;;;11.38;7.35;;;;;;;22.66;100.00;98580.03;5030033;28;19929;-80
2022/06/22 12:00:14;;;;;;;17.33;8.43;;;;;;;22.71;100.00;98587.50;5060493;27;20051;-80
2022/06/22 12:03:05;;;;;;;12.45;8.43;;;;;;;22.56;100.00;98580.03;5132949;27;20055;-80
2022/06/22 12:06:02;;;;;;;12.57;8.52;;;;;;;22.57;100.00;98595.53;5133907;27;20047;-80
2022/06/22 12:08:50;;;;;;;12.98;8.65;;;;;;;22.77;100.00;98589.16;5127270;27;20415;-80
2022/06/22 12:11:25;;;;;;;17.60;9.85;;;;;;;22.96;100.00;98586.63;5133659;27;20057;-80
2022/06/22 12:17:28;;;;;;;12.95;7.63;;;;;;;23.14;92.29;98574.16;5133343;27;20054;-80
2022/06/22 12:20:08;;;;;;;14.55;7.65;;;;;;;22.97;90.21;98564.19;5133477;27;20127;-80
2022/06/22 12:22:42;;;;;;;;;;;;;;;23.19;98.89;98574.13;5133331;27;20046;-80
2022/06/22 12:25:38;;;;;;;10.95;7.47;;;;;;;23.54;92.97;98563.97;5133198;27;19965;-81
2022/06/22 12:28:19;;;;;;;13.52;7.53;;;;;;;23.63;90.65;98559.50;5133256;27;20050;-80
2022/06/22 12:30:56;;;;;;;13.13;7.80;;;;;;;23.65;86.16;98548.94;5134015;27;20059;-80
2022/06/22 12:33:29;;;;;;;10.30;7.68;;;;;;;23.57;91.78;98557.84;5132489;27;20054;-80
2022/06/22 12:35:58;;;;;;;15.95;9.18;;;;;;;23.70;91.60;98550.88;5133407;27;20073;-81
2022/06/22 12:38:29;;;;;;;18.05;10.15;;;;;;;23.57;89.79;98549.53;5133538;27;20079;-80
2022/06/22 12:41:02;;;;;;;15.43;9.55;;;;;;;23.52;92.88;98546.81;5133431;27;20112;-80